Time;durP1;ratioP1;P1;durP2;ratioP2;P2;SDS_P1;SDS_P2;PMS_P1;PMS_P2;Temp;Humidity;BMP_temperature;BMP_pressure;BME280_temperature;BME280_humidity;BME280_pressure;Samples;Min_cycle;Max_cycle;Signal;HPM_P1;HPM_P2
2023/10/30 00:01:37;;;;;;;15.85;4.88;;;14.70;95.50;;;;;;5064802;28;20089;-52
2023/10/30 00:04:03;;;;;;;10.50;5.05;;;14.70;95.50;;;;;;5064793;28;20108;-52
2023/10/30 00:06:29;;;;;;;15.00;4.88;;;14.60;95.50;;;;;;5065961;28;20036;-52
2023/10/30 00:08:55;;;;;;;15.55;4.55;;;14.60;95.60;;;;;;5065955;28;20025;-52
2023/10/30 00:11:20;;;;;;;15.43;4.90;;;14.60;95.60;;;;;;5064677;28;20053;-52
2023/10/30 00:13:46;;;;;;;17.67;4.38;;;14.60;95.60;;;;;;5065793;28;20365;-52
2023/10/30 00:16:11;;;;;;;11.10;4.57;;;14.60;95.60;;;;;;5065939;28;20089;-52
2023/10/30 00:18:39;;;;;;;9.55;4.13;;;14.60;95.60;;;;;;5065745;28;20059;-52
2023/10/30 00:21:05;;;;;;;10.52;3.92;;;14.50;95.60;;;;;;5047442;28;20036;-52
2023/10/30 00:23:31;;;;;;;9.23;4.00;;;14.50;95.60;;;;;;5064397;28;20068;-52
2023/10/30 00:25:56;;;;;;;11.32;4.30;;;14.50;95.70;;;;;;5064449;28;20110;-52
2023/10/30 00:28:22;;;;;;;13.45;4.10;;;14.50;96.00;;;;;;5064300;28;20033;-52
2023/10/30 00:30:47;;;;;;;18.65;4.43;;;14.40;95.70;;;;;;5064340;28;20029;-53
2023/10/30 00:33:13;;;;;;;14.82;4.72;;;14.40;95.70;;;;;;5065513;28;20051;-53
2023/10/30 00:35:39;;;;;;;8.32;4.15;;;14.40;95.70;;;;;;5064223;28;20083;-52
2023/10/30 00:38:04;;;;;;;9.10;4.00;;;14.40;95.70;;;;;;5064262;28;20477;-52
2023/10/30 00:40:30;;;;;;;11.68;4.18;;;14.40;95.70;;;;;;5049525;28;20164;-52
2023/10/30 00:42:55;;;;;;;8.60;4.18;;;14.40;95.70;;;;;;5069330;28;20029;-52
2023/10/30 00:45:21;;;;;;;8.35;3.65;;;14.40;95.70;;;;;;5069294;28;20563;-52
2023/10/30 00:47:46;;;;;;;16.33;4.07;;;14.30;95.70;;;;;;5067791;28;20478;-52
2023/10/30 00:50:12;;;;;;;9.25;4.03;;;14.30;95.70;;;;;;5069210;28;20036;-52
2023/10/30 00:52:37;;;;;;;11.63;3.67;;;14.30;95.70;;;;;;5069062;28;20080;-52
2023/10/30 00:55:03;;;;;;;9.35;3.75;;;14.30;95.80;;;;;;5069134;28;20539;-53
2023/10/30 00:57:29;;;;;;;10.05;3.22;;;14.30;95.80;;;;;;5067537;28;20381;-52
2023/10/30 00:59:54;;;;;;;8.68;3.38;;;14.20;95.80;;;;;;5067916;28;20388;-52
2023/10/30 01:02:20;;;;;;;6.90;3.80;;;14.20;95.80;;;;;;5067537;28;20492;-52
2023/10/30 01:04:46;;;;;;;10.18;3.75;;;14.20;95.80;;;;;;5068856;28;20477;-52
2023/10/30 01:07:11;;;;;;;9.23;3.67;;;14.20;95.90;;;;;;5068866;28;20052;-52
2023/10/30 01:09:37;;;;;;;7.55;3.10;;;14.10;95.90;;;;;;5068817;28;20473;-52
2023/10/30 01:12:03;;;;;;;10.32;3.70;;;14.10;95.90;;;;;;5067599;28;20481;-52
2023/10/30 01:14:28;;;;;;;7.55;3.00;;;14.10;95.90;;;;;;5068849;28;20033;-52
2023/10/30 01:16:54;;;;;;;7.90;3.13;;;14.10;95.90;;;;;;5067514;28;20078;-52
2023/10/30 01:19:20;;;;;;;12.00;3.70;;;14.10;96.00;;;;;;5066934;28;20029;-52
2023/10/30 01:21:45;;;;;;;5.75;3.00;;;14.10;96.00;;;;;;5067032;28;20060;-52
2023/10/30 01:24:11;;;;;;;7.78;3.30;;;14.10;96.00;;;;;;5068432;28;20052;-52
2023/10/30 01:26:38;;;;;;;11.85;2.67;;;14.10;96.00;;;;;;5067147;28;20099;-52
2023/10/30 01:29:04;;;;;;;10.38;3.83;;;14.10;96.00;;;;;;5068414;28;20029;-52
2023/10/30 01:31:30;;;;;;;6.57;3.22;;;14.10;96.00;;;;;;5066984;28;20029;-53
2023/10/30 01:33:56;;;;;;;8.90;3.17;;;14.00;96.00;;;;;;5068449;28;20461;-52
2023/10/30 01:36:21;;;;;;;6.93;2.80;;;14.00;96.00;;;;;;5068357;28;20462;-52
2023/10/30 01:38:47;;;;;;;5.70;3.30;;;14.10;96.00;;;;;;5068252;28;20082;-52
2023/10/30 01:41:12;;;;;;;7.75;3.25;;;14.00;96.00;;;;;;5050125;28;20047;-52
2023/10/30 01:43:38;;;;;;;9.05;3.08;;;14.00;96.00;;;;;;5050064;28;20036;-52
2023/10/30 01:46:05;;;;;;;5.25;3.35;;;14.00;96.00;;;;;;5066976;28;20040;-52
2023/10/30 01:48:32;;;;;;;6.28;3.30;;;14.00;96.10;;;;;;5066905;28;20029;-52
2023/10/30 01:50:59;;;;;;;8.38;3.22;;;14.00;96.10;;;;;;5066529;28;20037;-52
2023/10/30 01:53:24;;;;;;;12.30;3.20;;;13.90;96.30;;;;;;5066166;28;20025;-52
2023/10/30 01:55:50;;;;;;;9.50;3.10;;;13.90;96.20;;;;;;5066195;28;20442;-53
2023/10/30 01:58:16;;;;;;;8.40;3.17;;;14.10;96.20;;;;;;5067270;28;20025;-52
2023/10/30 02:00:41;;;;;;;6.93;3.40;;;13.90;96.20;;;;;;5066922;28;20037;-52
2023/10/30 02:03:07;;;;;;;6.80;2.70;;;13.80;96.10;;;;;;5066645;28;20098;-52
2023/10/30 02:05:33;;;;;;;5.60;2.90;;;13.90;96.20;;;;;;5066347;28;20097;-53
2023/10/30 02:07:58;;;;;;;6.10;2.53;;;13.80;96.10;;;;;;5046282;28;20022;-53
2023/10/30 02:10:24;;;;;;;5.45;2.53;;;13.80;96.20;;;;;;5063506;28;20029;-52
2023/10/30 02:12:50;;;;;;;6.72;2.95;;;13.80;96.20;;;;;;5066511;28;20029;-52
2023/10/30 02:15:16;;;;;;;7.07;2.58;;;13.80;96.20;;;;;;5049536;28;20025;-52
2023/10/30 02:17:42;;;;;;;5.63;2.95;;;13.80;96.20;;;;;;5066497;28;20020;-52
2023/10/30 02:20:08;;;;;;;5.30;2.63;;;13.80;96.20;;;;;;5066472;28;20029;-52
2023/10/30 02:22:33;;;;;;;6.35;2.83;;;13.70;96.20;;;;;;5066669;28;20084;-52
2023/10/30 02:24:59;;;;;;;9.40;2.58;;;13.70;96.20;;;;;;5065938;28;20041;-52
2023/10/30 02:27:25;;;;;;;6.55;2.80;;;13.70;96.20;;;;;;5066083;28;20469;-52
2023/10/30 02:29:50;;;;;;;6.05;2.58;;;13.70;96.30;;;;;;5067257;28;20068;-52
2023/10/30 02:32:16;;;;;;;7.72;2.78;;;13.70;96.30;;;;;;5067195;28;20025;-52
2023/10/30 02:34:41;;;;;;;5.47;2.58;;;13.70;96.30;;;;;;5065868;28;20048;-52
2023/10/30 02:37:07;;;;;;;3.95;2.28;;;13.60;96.30;;;;;;5067236;28;20151;-52
2023/10/30 02:39:33;;;;;;;6.75;2.50;;;13.70;96.30;;;;;;5049115;28;20025;-52
2023/10/30 02:41:59;;;;;;;5.78;2.15;;;13.60;96.30;;;;;;5065644;28;20037;-53
2023/10/30 02:44:25;;;;;;;9.20;2.67;;;13.60;96.30;;;;;;5065664;28;20104;-52
2023/10/30 02:46:50;;;;;;;5.10;2.65;;;13.60;96.40;;;;;;5065716;28;20032;-52
2023/10/30 02:49:16;;;;;;;5.43;2.30;;;13.60;96.30;;;;;;5066871;28;20031;-52
2023/10/30 02:51:42;;;;;;;5.68;2.53;;;13.60;96.30;;;;;;5048854;28;20109;-52
2023/10/30 02:54:07;;;;;;;4.03;2.13;;;13.50;96.30;;;;;;5065732;28;20080;-52
2023/10/30 02:56:33;;;;;;;7.18;2.53;;;13.60;96.40;;;;;;5065607;28;20492;-52
2023/10/30 02:58:59;;;;;;;3.65;2.38;;;13.50;96.40;;;;;;5065435;28;20044;-52
2023/10/30 03:01:26;;;;;;;3.90;2.17;;;13.50;96.40;;;;;;5066777;28;20041;-52
2023/10/30 03:03:51;;;;;;;3.63;2.40;;;13.50;96.50;;;;;;5065941;28;20025;-52
2023/10/30 03:06:17;;;;;;;5.88;2.60;;;13.50;96.50;;;;;;5065411;28;20033;-52
2023/10/30 03:08:43;;;;;;;7.47;2.50;;;13.50;96.50;;;;;;5065296;28;20487;-52
2023/10/30 03:11:08;;;;;;;3.40;2.03;;;13.50;96.50;;;;;;5066426;28;20029;-52
2023/10/30 03:13:34;;;;;;;4.93;2.25;;;13.40;96.50;;;;;;5065031;28;20029;-52
2023/10/30 03:15:59;;;;;;;4.63;2.10;;;13.40;96.50;;;;;;5065233;28;20124;-52
2023/10/30 03:18:25;;;;;;;5.63;2.20;;;13.40;96.50;;;;;;5065222;28;20021;-52
2023/10/30 03:20:50;;;;;;;5.90;2.22;;;13.40;96.50;;;;;;5066201;28;20025;-52
2023/10/30 03:23:16;;;;;;;5.05;2.70;;;13.40;96.40;;;;;;5048387;28;20202;-52
2023/10/30 03:25:42;;;;;;;7.65;2.22;;;13.40;96.50;;;;;;5064936;28;20508;-52
2023/10/30 03:28:07;;;;;;;4.97;2.17;;;13.40;96.50;;;;;;5066147;28;20060;-52
2023/10/30 03:30:36;;;;;;;4.93;2.20;;;13.40;96.40;;;;;;5064842;28;20100;-52
2023/10/30 03:33:03;;;;;;;5.50;2.40;;;13.40;96.50;;;;;;5064837;28;20040;-52
2023/10/30 03:35:29;;;;;;;4.00;2.10;;;13.40;96.50;;;;;;5064737;28;20081;-52
2023/10/30 03:37:54;;;;;;;3.92;2.22;;;13.40;96.50;;;;;;5064716;28;20037;-52
2023/10/30 03:40:20;;;;;;;4.18;2.20;;;13.30;96.50;;;;;;5064905;28;20029;-52
2023/10/30 03:42:45;;;;;;;4.97;2.40;;;13.30;96.50;;;;;;5064758;28;20032;-52
2023/10/30 03:45:11;;;;;;;4.53;2.28;;;13.30;96.50;;;;;;5064754;28;20029;-52
2023/10/30 03:47:36;;;;;;;5.88;2.33;;;13.30;96.60;;;;;;5065766;28;20025;-52
2023/10/30 03:50:02;;;;;;;3.88;2.03;;;13.20;96.50;;;;;;5065943;28;20052;-52
2023/10/30 03:52:28;;;;;;;5.22;2.15;;;13.20;96.60;;;;;;5064662;28;20025;-53
2023/10/30 03:54:53;;;;;;;3.30;2.20;;;13.20;96.60;;;;;;5065926;28;20025;-52
2023/10/30 03:57:19;;;;;;;4.20;2.25;;;13.20;96.60;;;;;;5066042;28;20085;-52
2023/10/30 03:59:44;;;;;;;3.28;2.03;;;13.20;96.60;;;;;;5066147;28;20021;-52
2023/10/30 04:02:10;;;;;;;5.05;2.25;;;13.20;96.60;;;;;;5064649;28;20033;-52
2023/10/30 04:04:36;;;;;;;5.82;2.13;;;13.20;96.60;;;;;;5064589;28;20114;-52
2023/10/30 04:07:02;;;;;;;5.28;2.05;;;13.10;96.70;;;;;;5064488;28;20048;-52
2023/10/30 04:09:29;;;;;;;5.68;2.00;;;13.10;96.70;;;;;;5064470;28;20037;-52
2023/10/30 04:11:54;;;;;;;3.28;2.05;;;13.10;96.70;;;;;;5064524;28;20029;-52
2023/10/30 04:14:20;;;;;;;5.70;2.33;;;13.10;96.70;;;;;;5065839;28;20029;-53
2023/10/30 04:16:45;;;;;;;3.20;2.10;;;13.10;96.70;;;;;;5068657;28;20029;-52
2023/10/30 04:19:11;;;;;;;3.83;2.08;;;13.10;96.80;;;;;;5069789;28;20029;-52
2023/10/30 04:21:36;;;;;;;5.53;1.70;;;13.10;96.80;;;;;;5068256;28;20123;-52
2023/10/30 04:24:02;;;;;;;3.20;2.13;;;13.00;96.80;;;;;;5068433;28;20029;-52
2023/10/30 04:26:28;;;;;;;3.78;2.00;;;13.10;96.80;;;;;;5068448;28;20036;-52
2023/10/30 04:28:53;;;;;;;6.03;2.28;;;13.00;96.80;;;;;;5068188;28;20029;-52
2023/10/30 04:31:19;;;;;;;2.80;2.00;;;13.00;96.70;;;;;;5069364;28;20040;-52
2023/10/30 04:33:44;;;;;;;3.15;1.95;;;13.00;96.80;;;;;;5068032;28;20035;-52
2023/10/30 04:36:10;;;;;;;2.60;1.85;;;13.00;96.70;;;;;;5068117;28;20025;-52
2023/10/30 04:38:36;;;;;;;5.03;1.90;;;13.00;97.00;;;;;;5068167;28;20025;-52
2023/10/30 04:41:05;;;;;;;3.47;1.52;;;13.00;96.80;;;;;;5068182;28;20029;-52
2023/10/30 04:43:34;;;;;;;3.60;1.90;;;12.90;96.70;;;;;;5067926;28;20021;-52
2023/10/30 04:45:59;;;;;;;4.05;2.05;;;13.00;96.80;;;;;;5068041;28;20091;-52
2023/10/30 04:48:25;;;;;;;3.10;1.55;;;12.90;96.80;;;;;;5069255;28;20029;-52
2023/10/30 04:50:51;;;;;;;4.15;1.80;;;12.90;96.80;;;;;;5069184;28;20029;-52
2023/10/30 04:53:17;;;;;;;4.60;1.80;;;12.90;96.80;;;;;;5069107;28;20028;-52
2023/10/30 04:55:42;;;;;;;3.65;2.13;;;12.90;96.80;;;;;;5068150;28;20052;-52
2023/10/30 04:58:08;;;;;;;5.65;1.77;;;12.90;96.80;;;;;;5067738;28;20025;-52
2023/10/30 05:00:35;;;;;;;4.70;1.77;;;12.90;96.90;;;;;;5068974;28;20036;-52
2023/10/30 05:03:01;;;;;;;2.47;1.63;;;12.80;96.80;;;;;;5067762;28;20027;-52
2023/10/30 05:05:26;;;;;;;3.92;2.15;;;12.90;96.80;;;;;;5067745;28;20450;-52
2023/10/30 05:07:52;;;;;;;4.10;1.75;;;12.80;97.00;;;;;;5067413;28;20040;-52
2023/10/30 05:10:18;;;;;;;3.30;1.85;;;12.80;96.70;;;;;;5067295;28;20033;-52
2023/10/30 05:12:43;;;;;;;4.10;1.85;;;12.80;96.80;;;;;;5067510;28;20033;-52
2023/10/30 05:15:09;;;;;;;5.15;2.05;;;12.80;96.80;;;;;;5067350;28;20087;-52
2023/10/30 05:17:37;;;;;;;4.53;1.70;;;12.80;96.80;;;;;;5067460;28;20053;-52
2023/10/30 05:20:03;;;;;;;3.22;1.83;;;12.90;96.90;;;;;;5068871;28;20504;-52
2023/10/30 05:22:29;;;;;;;3.67;2.05;;;12.80;96.90;;;;;;5067546;28;20033;-52
2023/10/30 05:24:54;;;;;;;3.20;2.08;;;12.90;96.90;;;;;;5068617;28;20040;-52
2023/10/30 05:27:23;;;;;;;5.28;1.92;;;12.80;96.90;;;;;;5067169;28;20049;-53
2023/10/30 05:29:48;;;;;;;3.50;2.15;;;12.70;96.90;;;;;;5068453;28;20079;-52
2023/10/30 05:32:14;;;;;;;3.05;1.92;;;12.70;97.20;;;;;;5067000;28;20017;-52
2023/10/30 05:34:39;;;;;;;3.33;2.03;;;12.70;97.00;;;;;;5066979;28;20024;-52
2023/10/30 05:37:06;;;;;;;2.72;2.00;;;12.70;97.00;;;;;;5068287;28;20033;-52
2023/10/30 05:39:32;;;;;;;2.65;2.00;;;12.70;97.00;;;;;;5066829;28;20037;-52
2023/10/30 05:41:58;;;;;;;4.25;1.60;;;12.70;97.00;;;;;;5066922;28;20035;-52
2023/10/30 05:44:24;;;;;;;3.72;1.70;;;12.70;97.00;;;;;;5066873;28;20051;-52
2023/10/30 05:46:49;;;;;;;3.47;1.65;;;12.70;97.00;;;;;;5066736;28;20033;-52
2023/10/30 05:49:15;;;;;;;6.80;1.92;;;12.70;97.30;;;;;;5066799;28;20366;-52
2023/10/30 05:51:41;;;;;;;4.47;1.95;;;12.70;97.00;;;;;;5067889;28;20477;-52
2023/10/30 05:54:06;;;;;;;3.65;2.03;;;12.70;97.00;;;;;;5066639;28;20380;-52
2023/10/30 05:56:32;;;;;;;5.57;2.10;;;12.60;97.00;;;;;;5066525;28;20079;-52
2023/10/30 05:58:57;;;;;;;3.20;1.67;;;12.60;97.10;;;;;;5066617;28;20025;-52
2023/10/30 06:01:23;;;;;;;4.82;2.00;;;12.60;97.10;;;;;;5067832;28;20025;-52
2023/10/30 06:03:48;;;;;;;2.17;1.48;;;12.60;97.10;;;;;;5066649;28;20393;-52
2023/10/30 06:06:14;;;;;;;3.30;1.88;;;12.60;97.10;;;;;;5067688;28;20063;-52
2023/10/30 06:08:39;;;;;;;5.18;1.77;;;12.60;97.10;;;;;;5067262;28;20036;-52
2023/10/30 06:11:05;;;;;;;2.30;1.65;;;12.60;97.10;;;;;;5067703;28;20061;-52
2023/10/30 06:13:30;;;;;;;3.20;1.80;;;12.60;97.20;;;;;;5049584;28;20029;-53
2023/10/30 06:15:56;;;;;;;4.85;1.90;;;12.60;97.10;;;;;;5066109;28;20044;-52
2023/10/30 06:18:21;;;;;;;5.75;2.30;;;12.60;97.10;;;;;;5065956;28;20048;-53
2023/10/30 06:20:47;;;;;;;3.72;2.17;;;12.60;97.10;;;;;;5067232;28;20102;-52
2023/10/30 06:23:13;;;;;;;2.05;1.77;;;12.60;97.10;;;;;;5067385;28;20389;-52
2023/10/30 06:25:38;;;;;;;3.85;2.40;;;12.50;97.10;;;;;;5065894;28;20071;-52
2023/10/30 06:28:04;;;;;;;3.63;2.10;;;12.60;97.20;;;;;;5065877;28;20108;-52
2023/10/30 06:30:29;;;;;;;2.17;1.65;;;12.50;97.10;;;;;;5066088;28;20032;-52
2023/10/30 06:32:55;;;;;;;3.60;2.03;;;12.50;97.10;;;;;;5067195;28;20055;-52
2023/10/30 06:35:20;;;;;;;5.80;2.03;;;12.50;97.20;;;;;;5067234;28;20025;-52
2023/10/30 06:37:46;;;;;;;2.88;2.00;;;12.50;97.10;;;;;;5065835;28;20035;-52
2023/10/30 06:40:15;;;;;;;5.65;2.10;;;12.50;97.10;;;;;;5065849;28;20065;-52
2023/10/30 06:42:40;;;;;;;2.75;1.90;;;12.50;97.10;;;;;;5065760;28;20029;-52
2023/10/30 06:45:06;;;;;;;3.17;1.90;;;12.50;97.10;;;;;;5065636;28;20037;-53
2023/10/30 06:47:32;;;;;;;2.83;1.85;;;12.50;97.10;;;;;;5065618;28;20036;-52
2023/10/30 06:49:58;;;;;;;3.63;1.80;;;12.50;97.10;;;;;;5066708;28;20033;-52
2023/10/30 06:52:23;;;;;;;3.75;1.90;;;12.50;97.10;;;;;;5066561;28;20040;-53
2023/10/30 06:54:49;;;;;;;5.97;2.20;;;12.50;97.10;;;;;;5066576;28;20064;-52
2023/10/30 06:57:14;;;;;;;3.25;2.00;;;12.50;97.10;;;;;;5066819;28;20047;-52
2023/10/30 06:59:40;;;;;;;4.32;2.45;;;12.50;97.20;;;;;;5065509;28;20033;-52
2023/10/30 07:02:05;;;;;;;3.90;2.00;;;12.40;97.10;;;;;;5065380;28;20033;-52
2023/10/30 07:04:31;;;;;;;3.42;2.33;;;12.40;97.20;;;;;;5066680;28;20025;-52
2023/10/30 07:06:57;;;;;;;2.30;2.05;;;12.40;97.10;;;;;;5048514;28;20029;-52
2023/10/30 07:09:23;;;;;;;6.72;2.25;;;12.40;97.40;;;;;;5065076;28;20029;-52
2023/10/30 07:11:48;;;;;;;3.50;2.05;;;12.40;97.10;;;;;;5064978;28;20032;-52
2023/10/30 07:14:14;;;;;;;7.15;2.53;;;12.50;97.20;;;;;;5066230;28;20025;-52
2023/10/30 07:16:40;;;;;;;6.22;2.05;;;12.40;97.20;;;;;;5065176;28;20031;-52
2023/10/30 07:19:05;;;;;;;5.93;2.22;;;12.40;97.20;;;;;;5065114;28;20031;-52
2023/10/30 07:21:31;;;;;;;2.83;2.42;;;12.40;97.20;;;;;;5065020;28;20488;-52
2023/10/30 07:23:57;;;;;;;5.75;2.10;;;12.40;97.20;;;;;;5065053;28;20037;-52
2023/10/30 07:26:23;;;;;;;5.25;2.10;;;12.40;97.20;;;;;;5066350;28;20036;-52
2023/10/30 07:28:49;;;;;;;10.35;2.75;;;12.40;97.20;;;;;;5066511;28;20025;-52
2023/10/30 07:31:18;;;;;;;11.60;2.97;;;12.40;97.20;;;;;;5065082;28;20033;-52
2023/10/30 07:33:44;;;;;;;7.50;2.78;;;12.40;97.30;;;;;;5066332;28;20029;-56
2023/10/30 07:36:12;;;;;;;14.38;3.42;;;12.40;97.30;;;;;;5064815;28;20057;-56
2023/10/30 07:38:37;;;;;;;14.88;3.40;;;12.40;97.30;;;;;;5065944;28;20085;-57
2023/10/30 07:41:04;;;;;;;15.95;2.75;;;12.40;97.30;;;;;;5064423;28;20433;-56
2023/10/30 07:43:32;;;;;;;16.70;2.70;;;12.40;97.40;;;;;;5089663;28;20039;-56
2023/10/30 07:45:58;;;;;;;8.95;3.08;;;12.40;97.50;;;;;;5106247;28;20032;-57
2023/10/30 07:48:26;;;;;;;9.38;2.78;;;12.40;97.50;;;;;;5087711;28;20038;-57
2023/10/30 07:50:52;;;;;;;12.48;3.22;;;12.50;97.40;;;;;;5071350;28;20437;-57
2023/10/30 07:53:18;;;;;;;13.45;2.92;;;12.50;97.40;;;;;;5087013;28;20028;-56
2023/10/30 07:55:45;;;;;;;12.52;2.78;;;12.40;97.60;;;;;;5071495;28;20032;-56
2023/10/30 07:58:12;;;;;;;7.10;2.90;;;12.40;97.50;;;;;;5071366;28;20056;-56
2023/10/30 08:00:38;;;;;;;22.42;4.05;;;12.50;97.50;;;;;;5105959;28;20498;-56
2023/10/30 08:03:03;;;;;;;14.35;3.28;;;12.50;97.60;;;;;;5106065;28;20032;-56
2023/10/30 08:05:30;;;;;;;22.25;3.65;;;12.50;97.60;;;;;;5106206;28;20051;-56
2023/10/30 08:07:56;;;;;;;21.05;3.40;;;12.50;97.60;;;;;;5071812;28;20028;-56
2023/10/30 08:10:21;;;;;;;27.60;3.58;;;12.50;97.60;;;;;;5088046;28;20538;-57
2023/10/30 08:12:47;;;;;;;18.75;3.90;;;12.50;97.70;;;;;;5087112;28;20028;-56
2023/10/30 08:15:13;;;;;;;15.77;4.22;;;12.60;97.80;;;;;;5105304;28;20028;-57
2023/10/30 08:17:38;;;;;;;17.65;4.53;;;12.50;97.80;;;;;;5070835;28;20027;-56
2023/10/30 08:20:04;;;;;;;25.17;3.92;;;12.60;98.00;;;;;;5106092;28;20471;-56
2023/10/30 08:22:31;;;;;;;20.45;4.72;;;12.60;98.10;;;;;;5105817;28;20449;-56
2023/10/30 08:24:57;;;;;;;13.88;4.03;;;12.60;98.10;;;;;;5088221;28;20032;-56
2023/10/30 08:27:23;;;;;;;25.33;5.20;;;12.60;98.20;;;;;;5106016;28;20494;-56
2023/10/30 08:29:49;;;;;;;23.95;4.72;;;12.60;98.30;;;;;;5106084;28;20046;-56
2023/10/30 08:32:14;;;;;;;24.73;4.72;;;12.70;98.30;;;;;;5071019;28;20020;-56
2023/10/30 08:34:40;;;;;;;23.88;4.97;;;12.70;98.30;;;;;;5105975;28;20517;-56
2023/10/30 08:37:05;;;;;;;28.05;4.85;;;12.70;98.40;;;;;;5104543;28;20039;-57
2023/10/30 08:39:31;;;;;;;20.65;5.60;;;12.70;98.40;;;;;;5087861;28;20026;-57
2023/10/30 08:41:56;;;;;;;26.60;5.03;;;12.70;98.40;;;;;;5069914;28;20268;-57
2023/10/30 08:44:22;;;;;;;28.48;4.70;;;12.70;98.50;;;;;;5084235;28;20029;-56
2023/10/30 08:46:47;;;;;;;23.65;4.47;;;12.70;98.40;;;;;;5084182;28;20062;-57
2023/10/30 08:49:13;;;;;;;22.35;4.63;;;12.70;98.40;;;;;;5083910;28;20036;-56
2023/10/30 08:51:40;;;;;;;28.80;4.88;;;12.70;98.40;;;;;;5032933;28;20028;-57
2023/10/30 08:54:06;;;;;;;53.70;7.10;;;12.70;98.30;;;;;;5049646;28;20016;-56
2023/10/30 08:56:32;;;;;;;44.97;7.55;;;12.70;98.30;;;;;;5083962;28;20032;-57
2023/10/30 08:58:57;;;;;;;28.15;5.85;;;12.80;98.40;;;;;;5067196;28;20086;-56
2023/10/30 09:01:23;;;;;;;43.97;6.63;;;12.80;98.40;;;;;;5067521;28;20021;-56
2023/10/30 09:03:48;;;;;;;45.60;6.47;;;12.80;98.40;;;;;;5088812;28;20586;-56
2023/10/30 09:06:14;;;;;;;62.25;8.68;;;12.80;98.40;;;;;;5054163;28;20059;-57
2023/10/30 09:08:39;;;;;;;48.72;7.78;;;12.80;98.40;;;;;;5053931;28;20464;-56
2023/10/30 09:11:05;;;;;;;50.58;8.40;;;12.80;98.50;;;;;;5088674;28;20048;-56
2023/10/30 09:13:31;;;;;;;39.67;6.68;;;12.90;98.40;;;;;;5088487;28;20029;-56
2023/10/30 09:15:57;;;;;;;58.13;9.93;;;12.90;98.40;;;;;;5088450;28;20043;-56
2023/10/30 09:18:22;;;;;;;56.83;8.43;;;12.90;98.40;;;;;;5088451;28;20028;-56
2023/10/30 09:20:48;;;;;;;38.30;6.90;;;12.90;98.60;;;;;;5088414;28;20055;-56
2023/10/30 09:23:13;;;;;;;63.45;7.75;;;12.90;98.60;;;;;;5088427;28;20059;-57
2023/10/30 09:25:39;;;;;;;62.80;8.90;;;12.90;98.60;;;;;;5088376;28;20058;-56
2023/10/30 09:28:04;;;;;;;66.30;7.80;;;13.00;98.70;;;;;;5070340;28;20025;-57
2023/10/30 09:30:30;;;;;;;40.63;7.03;;;13.00;98.70;;;;;;5088604;28;20456;-56
2023/10/30 09:32:59;;;;;;;43.88;6.15;;;13.00;98.70;;;;;;5069976;28;20044;-56
2023/10/30 09:35:29;;;;;;;47.75;7.82;;;13.30;98.60;;;;;;5053443;28;20037;-56
2023/10/30 09:37:56;;;;;;;31.27;6.82;;;13.10;98.60;;;;;;5070565;28;20035;-56
2023/10/30 09:40:23;;;;;;;41.72;6.38;;;13.10;98.60;;;;;;5053509;28;20056;-56
2023/10/30 09:42:52;;;;;;;34.60;7.50;;;13.10;98.60;;;;;;5036625;28;20032;-57
2023/10/30 09:45:24;;;;;;;48.80;6.93;;;13.10;98.80;;;;;;5070144;28;20028;-56
2023/10/30 09:47:59;;;;;;;34.63;7.10;;;13.10;98.80;;;;;;5053862;28;20033;-57
2023/10/30 09:50:25;;;;;;;39.20;7.13;;;13.10;98.80;;;;;;5088086;28;20032;-57
2023/10/30 09:52:54;;;;;;;33.05;7.22;;;13.20;98.80;;;;;;5052145;28;20029;-57
2023/10/30 09:55:23;;;;;;;43.97;7.45;;;13.20;98.80;;;;;;5087435;28;20480;-56
2023/10/30 09:57:51;;;;;;;42.72;7.75;;;13.20;98.90;;;;;;5053386;28;20066;-56
2023/10/30 10:00:17;;;;;;;65.00;7.63;;;13.20;99.00;;;;;;5071885;28;20055;-56
2023/10/30 10:02:43;;;;;;;64.68;8.48;;;13.30;99.00;;;;;;5095420;28;20150;-56
2023/10/30 10:05:09;;;;;;;67.82;8.68;;;13.30;98.90;;;;;;5069698;28;20032;-57
2023/10/30 10:07:35;;;;;;;67.97;9.88;;;13.30;98.90;;;;;;5052911;28;20047;-56
2023/10/30 10:10:04;;;;;;;157.30;17.98;;;13.30;98.90;;;;;;5068297;28;20100;-57
2023/10/30 10:12:30;;;;;;;104.78;14.43;;;13.40;99.00;;;;;;5076585;28;20065;-56
2023/10/30 10:14:56;;;;;;;85.55;11.30;;;13.30;98.90;;;;;;5060722;28;20036;-57
2023/10/30 10:17:22;;;;;;;59.28;8.98;;;13.40;98.90;;;;;;5064149;28;20032;-56
2023/10/30 10:19:48;;;;;;;52.05;8.38;;;13.30;98.90;;;;;;5093990;28;20067;-57
2023/10/30 10:22:27;;;;;;;166.93;18.23;;;13.50;98.90;;;;;;5071608;28;20029;-56
2023/10/30 10:24:53;;;;;;;103.53;16.02;;;13.50;99.00;;;;;;5091834;28;20071;-56
2023/10/30 10:27:19;;;;;;;60.63;8.95;;;13.50;99.00;;;;;;5066257;28;20021;-56
2023/10/30 10:29:45;;;;;;;43.08;8.55;;;13.50;98.90;;;;;;5080196;28;20115;-57
2023/10/30 10:32:11;;;;;;;39.22;7.32;;;13.60;98.90;;;;;;5064305;28;20062;-56
2023/10/30 10:34:37;;;;;;;46.60;7.70;;;13.60;98.80;;;;;;5074209;28;20044;-56
2023/10/30 10:37:02;;;;;;;60.28;8.27;;;13.70;98.80;;;;;;5048863;28;20043;-56
2023/10/30 10:39:43;;;;;;;55.45;8.50;;;13.60;98.80;;;;;;5080956;28;20024;-57
2023/10/30 10:42:08;;;;;;;37.55;7.35;;;13.70;98.70;;;;;;5065162;28;20105;-56
2023/10/30 10:44:34;;;;;;;60.05;9.50;;;13.70;98.70;;;;;;5072391;28;20503;-56
2023/10/30 10:47:00;;;;;;;73.00;10.75;;;13.80;99.10;;;;;;5046508;28;20033;-57
2023/10/30 10:49:29;;;;;;;78.00;11.30;;;13.80;98.70;;;;;;5049109;28;20079;-56
2023/10/30 10:51:54;;;;;;;99.80;13.52;;;13.80;98.70;;;;;;5049311;28;20025;-56
2023/10/30 10:54:24;;;;;;;68.97;12.52;;;13.80;98.70;;;;;;5055397;28;20025;-56
2023/10/30 10:56:52;;;;;;;65.00;11.20;;;13.90;98.80;;;;;;5064749;28;20469;-56
2023/10/30 10:59:17;;;;;;;61.97;9.70;;;13.90;98.90;;;;;;5087863;28;20077;-57
2023/10/30 11:01:43;;;;;;;82.20;9.73;;;13.90;98.90;;;;;;5071562;28;20460;-56
2023/10/30 11:04:11;;;;;;;73.45;12.23;;;14.00;98.90;;;;;;5062181;28;20024;-56
2023/10/30 11:06:37;;;;;;;54.65;9.82;;;14.00;98.90;;;;;;5101077;28;20032;-57
2023/10/30 11:09:14;;;;;;;71.68;11.45;;;14.00;98.90;;;;;;5068927;28;20032;-56
2023/10/30 11:11:52;;;;;;;70.47;9.85;;;14.00;98.90;;;;;;5063003;28;20033;-57
2023/10/30 11:14:25;;;;;;;66.30;11.23;;;14.10;99.00;;;;;;5044471;28;20031;-57
2023/10/30 11:16:57;;;;;;;56.30;9.85;;;14.00;98.90;;;;;;5068795;28;20039;-56
2023/10/30 11:19:24;;;;;;;152.45;18.85;;;14.10;99.00;;;;;;5055186;28;20055;-56
2023/10/30 11:21:49;;;;;;;104.50;12.48;;;14.10;99.00;;;;;;5070320;28;20123;-57
2023/10/30 11:24:34;;;;;;;101.57;14.73;;;14.20;99.10;;;;;;5084607;28;20032;-57
2023/10/30 11:26:59;;;;;;;86.40;12.63;;;14.20;99.00;;;;;;5106146;28;20024;-57
2023/10/30 11:29:45;;;;;;;89.30;12.80;;;14.20;99.00;;;;;;5084752;28;20110;-57
2023/10/30 11:32:13;;;;;;;;;;;14.20;98.90;;;;;;5068297;28;20032;-57
2023/10/30 11:34:39;;;;;;;29.67;6.75;;;14.20;98.70;;;;;;5068388;28;19908;-57
2023/10/30 11:37:12;;;;;;;39.90;7.88;;;14.30;98.60;;;;;;5083804;28;20032;-57
2023/10/30 11:39:41;;;;;;;112.93;12.68;;;14.30;98.70;;;;;;5075165;28;20039;-56
2023/10/30 11:42:22;;;;;;;90.32;11.77;;;14.30;98.80;;;;;;5069645;28;20048;-56
2023/10/30 11:44:51;;;;;;;72.10;12.00;;;14.40;98.80;;;;;;5087690;28;20040;-57
2023/10/30 11:47:23;;;;;;;122.60;16.48;;;14.40;98.70;;;;;;5037704;28;20554;-56
2023/10/30 11:49:49;;;;;;;68.03;10.55;;;14.50;98.70;;;;;;5095124;28;20029;-56
2023/10/30 11:52:15;;;;;;;86.32;13.00;;;14.50;98.80;;;;;;5082951;28;21003;-57
2023/10/30 11:54:41;;;;;;;81.15;11.98;;;14.40;98.70;;;;;;5067132;28;20029;-56
2023/10/30 11:57:09;;;;;;;97.18;14.60;;;14.50;98.80;;;;;;5067730;28;20029;-57
2023/10/30 11:59:36;;;;;;;169.25;18.55;;;14.50;98.90;;;;;;5079063;28;20042;-57
2023/10/30 12:02:01;;;;;;;103.82;14.13;;;14.50;98.90;;;;;;5066458;28;20046;-56
2023/10/30 12:04:27;;;;;;;93.30;13.18;;;14.50;98.90;;;;;;5060174;28;20099;-56
2023/10/30 12:06:53;;;;;;;86.95;12.90;;;14.50;98.80;;;;;;5086777;28;20031;-57
2023/10/30 12:09:20;;;;;;;87.53;12.52;;;14.60;98.90;;;;;;5072965;28;20027;-57
2023/10/30 12:11:45;;;;;;;79.82;11.70;;;14.60;98.90;;;;;;5073150;28;20036;-56
2023/10/30 12:14:12;;;;;;;55.75;9.30;;;14.70;98.90;;;;;;5050788;28;20119;-56
2023/10/30 12:16:38;;;;;;;72.65;9.65;;;14.60;98.70;;;;;;5068469;28;20028;-57
2023/10/30 12:19:03;;;;;;;109.32;17.55;;;14.60;98.60;;;;;;5065802;28;20024;-57
2023/10/30 12:21:29;;;;;;;64.57;11.30;;;14.60;98.60;;;;;;5085499;28;20032;-56
2023/10/30 12:23:59;;;;;;;55.90;10.63;;;14.70;98.80;;;;;;5086295;28;20028;-56
2023/10/30 12:26:25;;;;;;;94.50;14.10;;;14.70;98.90;;;;;;5056845;28;20037;-57
2023/10/30 12:28:50;;;;;;;69.93;12.30;;;14.70;99.10;;;;;;5065641;28;20096;-57
2023/10/30 12:31:20;;;;;;;65.53;11.05;;;14.70;99.30;;;;;;5079783;28;20036;-57
2023/10/30 12:33:45;;;;;;;59.05;9.90;;;14.70;99.30;;;;;;5066708;28;20036;-56
2023/10/30 12:36:11;;;;;;;53.97;8.98;;;14.80;99.20;;;;;;5050290;28;20365;-56